createdAt,value
2018-09-04T00:00:22.944Z,47.60
2018-09-04T00:02:50.909Z,48.53
2018-09-04T00:05:18.839Z,47.57
2018-09-04T00:07:46.812Z,48.73
2018-09-04T00:10:15.233Z,48.23
2018-09-04T00:12:43.196Z,48.53
2018-09-04T00:15:11.191Z,48.13
2018-09-04T00:17:39.168Z,48.03
2018-09-04T00:20:07.109Z,48.27
2018-09-04T00:22:35.103Z,49.93
2018-09-04T00:25:03.052Z,47.70
2018-09-04T00:27:31.032Z,50.77
2018-09-04T00:29:59.011Z,49.80
2018-09-04T00:32:27.019Z,48.57
2018-09-04T00:34:54.998Z,51.33
2018-09-04T00:37:22.958Z,53.13
2018-09-04T00:39:51.279Z,47.80
2018-09-04T00:42:19.241Z,45.37
2018-09-04T00:44:48.016Z,49.80
2018-09-04T00:47:15.978Z,47.97
2018-09-04T00:49:43.943Z,47.00
2018-09-04T00:52:11.928Z,46.87
2018-09-04T00:54:39.985Z,46.73
2018-09-04T00:57:07.999Z,47.20
2018-09-04T00:59:35.967Z,48.70
2018-09-04T01:02:03.920Z,48.90
2018-09-04T01:04:31.894Z,51.37
2018-09-04T01:06:59.904Z,47.10
2018-09-04T01:09:27.847Z,50.13
2018-09-04T01:11:55.813Z,49.67
2018-09-04T01:14:23.856Z,50.37
2018-09-04T01:16:51.801Z,48.03
2018-09-04T01:19:19.788Z,49.20
2018-09-04T01:21:47.814Z,41.60
2018-09-04T01:24:15.921Z,48.97
2018-09-04T01:26:43.978Z,47.40
2018-09-04T01:29:12.112Z,50.30
2018-09-04T01:31:40.204Z,44.97
2018-09-04T01:34:08.216Z,49.47
2018-09-04T01:36:36.187Z,48.93
2018-09-04T01:39:05.241Z,48.67
2018-09-04T01:41:33.203Z,52.77
2018-09-04T01:44:01.172Z,50.67
2018-09-04T01:46:29.128Z,50.00
2018-09-04T01:48:57.077Z,48.30
2018-09-04T01:51:25.057Z,47.80
2018-09-04T01:53:53.021Z,47.93
2018-09-04T01:56:21.029Z,48.73
2018-09-04T01:58:52.779Z,49.00
2018-09-04T02:01:20.768Z,49.57
2018-09-04T02:03:48.710Z,50.70
2018-09-04T02:06:16.678Z,47.47
2018-09-04T02:08:44.643Z,45.17
2018-09-04T02:11:12.602Z,45.37
2018-09-04T02:13:40.691Z,52.90
2018-09-04T02:16:08.668Z,49.70
2018-09-04T02:18:36.704Z,49.67
2018-09-04T02:21:04.721Z,48.87
2018-09-04T02:23:32.784Z,54.97
2018-09-04T02:26:00.922Z,50.13
2018-09-04T02:28:28.870Z,54.80
2018-09-04T02:30:56.825Z,49.67
2018-09-04T02:33:24.780Z,51.37
2018-09-04T02:35:52.817Z,52.60
2018-09-04T02:38:20.796Z,51.27
2018-09-04T02:40:48.774Z,53.60
2018-09-04T02:43:16.745Z,51.27
2018-09-04T02:45:44.739Z,51.63
2018-09-04T02:48:12.679Z,51.33
2018-09-04T02:50:40.980Z,55.07
2018-09-04T02:53:08.968Z,48.80
2018-09-04T02:55:36.947Z,49.63
2018-09-04T02:58:05.032Z,48.07
2018-09-04T03:00:32.986Z,53.07
2018-09-04T03:03:00.956Z,54.23
2018-09-04T03:05:28.893Z,53.93
2018-09-04T03:07:56.860Z,53.67
2018-09-04T03:10:24.927Z,52.70
2018-09-04T03:12:52.871Z,49.07
2018-09-04T03:15:20.830Z,49.80
2018-09-04T03:17:48.783Z,52.27
2018-09-04T03:20:16.716Z,51.83
2018-09-04T03:22:44.708Z,49.83
2018-09-04T03:25:12.753Z,53.70
2018-09-04T03:27:40.783Z,53.23
2018-09-04T03:30:08.981Z,53.97
2018-09-04T03:32:36.952Z,51.73
2018-09-04T03:35:04.933Z,55.57
2018-09-04T03:37:32.892Z,56.87
2018-09-04T03:40:00.843Z,53.77
2018-09-04T03:42:28.823Z,54.70
2018-09-04T03:44:56.796Z,53.20
2018-09-04T03:47:24.752Z,52.70
2018-09-04T03:49:52.732Z,50.70
2018-09-04T03:52:20.729Z,53.27
2018-09-04T03:54:48.723Z,49.17
2018-09-04T03:57:16.689Z,51.10
2018-09-04T03:59:44.656Z,51.87
2018-09-04T04:02:12.618Z,49.40
2018-09-04T04:04:40.675Z,51.17
2018-09-04T04:07:08.923Z,50.83
2018-09-04T04:09:37.045Z,51.93
2018-09-04T04:12:05.122Z,55.33
2018-09-04T04:14:33.039Z,50.40
2018-09-04T04:17:00.964Z,49.47
2018-09-04T04:19:28.919Z,51.63
2018-09-04T04:21:56.969Z,54.80
2018-09-04T04:24:24.979Z,53.97
2018-09-04T04:26:52.907Z,57.20
2018-09-04T04:29:20.853Z,54.03
2018-09-04T04:31:48.819Z,53.30
2018-09-04T04:34:16.792Z,54.17
2018-09-04T04:36:44.750Z,53.93
2018-09-04T04:39:12.676Z,50.90
2018-09-04T04:41:40.763Z,54.33
2018-09-04T04:44:08.904Z,52.17
2018-09-04T04:46:37.503Z,53.17
2018-09-04T04:49:05.630Z,53.17
2018-09-04T04:51:35.748Z,52.17
2018-09-04T04:54:04.005Z,54.87
2018-09-04T04:56:36.860Z,51.33
2018-09-04T04:59:04.835Z,56.67
2018-09-04T05:01:32.777Z,54.50
2018-09-04T05:04:01.007Z,53.00
2018-09-04T05:06:29.201Z,55.73
2018-09-04T05:08:57.196Z,58.00
2018-09-04T05:11:25.227Z,59.70
2018-09-04T05:13:53.149Z,55.00
2018-09-04T05:16:21.076Z,55.23
2018-09-04T05:18:49.040Z,56.20
2018-09-04T05:21:16.957Z,55.20
2018-09-04T05:23:45.056Z,56.03
2018-09-04T05:26:12.997Z,58.80
2018-09-04T05:28:41.021Z,60.60
2018-09-04T05:31:08.963Z,62.60
2018-09-04T05:33:40.092Z,57.30
2018-09-04T05:36:08.023Z,58.63
2018-09-04T05:38:36.092Z,56.37
2018-09-04T05:41:03.992Z,55.50
2018-09-04T05:43:38.778Z,58.17
2018-09-04T05:46:17.973Z,58.80
2018-09-04T05:48:45.912Z,55.90
2018-09-04T05:51:13.888Z,59.93
2018-09-04T05:53:41.842Z,58.17
2018-09-04T05:56:09.823Z,63.67
2018-09-04T05:58:37.801Z,63.33
2018-09-04T06:01:05.931Z,62.33
2018-09-04T06:03:33.922Z,59.00
2018-09-04T06:06:01.867Z,60.73
2018-09-04T06:08:29.948Z,62.90
2018-09-04T06:10:57.888Z,57.17
2018-09-04T06:13:25.945Z,55.90
2018-09-04T06:15:53.905Z,56.63
2018-09-04T06:18:21.861Z,59.17
2018-09-04T06:20:49.780Z,56.40
2018-09-04T06:23:17.867Z,61.47
2018-09-04T06:25:45.987Z,53.43
2018-09-04T06:28:13.952Z,53.73
2018-09-04T06:30:41.991Z,53.27
2018-09-04T06:33:09.931Z,53.23
2018-09-04T06:35:37.883Z,57.17
2018-09-04T06:38:05.825Z,50.90
2018-09-04T06:40:33.777Z,54.20
2018-09-04T06:43:01.803Z,54.30
2018-09-04T06:45:29.772Z,51.70
2018-09-04T06:47:57.756Z,55.60
2018-09-04T06:50:25.822Z,53.10
2018-09-04T06:52:53.929Z,57.03
2018-09-04T06:55:21.864Z,53.73
2018-09-04T06:57:49.843Z,57.90
2018-09-04T07:00:17.760Z,53.30
2018-09-04T07:02:45.714Z,53.67
2018-09-04T07:05:13.710Z,58.03
2018-09-04T07:07:42.148Z,56.47
2018-09-04T07:10:10.648Z,57.60
2018-09-04T07:12:39.004Z,59.73
2018-09-04T07:15:07.100Z,59.77
2018-09-04T07:17:35.035Z,55.60
2018-09-04T07:20:02.970Z,55.97
2018-09-04T07:22:30.917Z,59.30
2018-09-04T07:24:58.856Z,59.73
2018-09-04T07:27:26.845Z,58.00
2018-09-04T07:29:54.769Z,57.67
2018-09-04T07:32:22.755Z,64.63
2018-09-04T07:34:50.750Z,60.33
2018-09-04T07:37:18.748Z,60.03
2018-09-04T07:39:46.711Z,64.50
2018-09-04T07:42:14.676Z,64.87
2018-09-04T07:44:42.607Z,62.37
2018-09-04T07:47:11.592Z,62.17
2018-09-04T07:49:39.536Z,58.80
2018-09-04T07:52:07.534Z,62.90
2018-09-04T07:54:35.475Z,57.87
2018-09-04T07:57:03.411Z,58.50
2018-09-04T07:59:31.573Z,59.20
2018-09-04T08:01:59.632Z,64.87
2018-09-04T08:04:27.544Z,65.03
2018-09-04T08:06:55.511Z,66.60
2018-09-04T08:09:23.488Z,65.33
2018-09-04T08:11:51.404Z,64.27
2018-09-04T08:14:19.351Z,65.47
2018-09-04T08:16:47.330Z,58.43
2018-09-04T08:19:15.270Z,63.57
2018-09-04T08:21:43.226Z,66.10
2018-09-04T08:24:11.206Z,67.70
2018-09-04T08:26:39.148Z,67.17
2018-09-04T08:29:10.052Z,67.73
2018-09-04T08:31:38.065Z,65.73
2018-09-04T08:34:06.094Z,68.73
2018-09-04T08:36:34.131Z,65.97
2018-09-04T08:39:02.084Z,68.30
2018-09-04T08:41:31.086Z,68.33
2018-09-04T08:43:59.138Z,74.37
2018-09-04T08:46:27.062Z,76.60
2018-09-04T08:48:54.971Z,68.10
2018-09-04T08:51:22.929Z,72.67
2018-09-04T08:53:50.865Z,70.87
2018-09-04T08:56:18.793Z,74.23
2018-09-04T08:58:46.864Z,73.97
2018-09-04T09:01:14.764Z,68.50
2018-09-04T09:03:42.832Z,72.03
2018-09-04T09:06:10.816Z,72.50
2018-09-04T09:08:38.737Z,71.77
2018-09-04T09:11:06.668Z,71.37
2018-09-04T09:13:34.624Z,72.27
2018-09-04T09:16:02.587Z,73.43
2018-09-04T09:18:30.520Z,73.37
2018-09-04T09:20:58.492Z,77.87
2018-09-04T09:23:26.438Z,76.57
2018-09-04T09:25:54.372Z,76.23
2018-09-04T09:28:22.434Z,75.77
2018-09-04T09:30:50.385Z,75.37
2018-09-04T09:33:18.344Z,74.20
2018-09-04T09:35:46.301Z,77.03
2018-09-04T09:38:14.251Z,76.17
2018-09-04T09:40:42.244Z,75.83
2018-09-04T09:43:10.548Z,75.27
2018-09-04T09:45:38.504Z,70.90
2018-09-04T09:48:06.505Z,72.30
2018-09-04T09:50:34.619Z,75.67
2018-09-04T09:53:02.560Z,77.10
2018-09-04T09:55:30.450Z,72.57
2018-09-04T09:57:58.426Z,70.63
2018-09-04T10:00:31.921Z,71.97
2018-09-04T10:03:04.706Z,71.20
2018-09-04T10:05:33.196Z,71.90
2018-09-04T10:08:01.282Z,73.90
2018-09-04T10:10:29.202Z,71.53
2018-09-04T10:12:57.152Z,69.17
2018-09-04T10:15:25.107Z,69.13
2018-09-04T10:17:53.071Z,64.13
2018-09-04T10:20:21.020Z,63.67
2018-09-04T10:22:49.024Z,63.63
2018-09-04T10:25:16.981Z,58.67
2018-09-04T10:27:44.936Z,64.77
2018-09-04T10:30:14.543Z,63.00
2018-09-04T10:32:50.624Z,59.07
2018-09-04T10:35:18.958Z,52.90
2018-09-04T10:37:47.305Z,53.33
2018-09-04T10:40:20.824Z,48.67
2018-09-04T10:42:48.775Z,48.20
2018-09-04T10:45:22.142Z,46.87
2018-09-04T10:47:50.254Z,48.53
2018-09-04T10:50:18.204Z,44.90
2018-09-04T10:52:46.206Z,47.20
2018-09-04T10:55:14.179Z,46.93
2018-09-04T10:57:42.185Z,44.00
2018-09-04T11:00:10.076Z,43.33
2018-09-04T11:02:38.028Z,42.90
2018-09-04T11:05:05.984Z,43.93
2018-09-04T11:07:33.977Z,44.27
2018-09-04T11:10:02.091Z,41.77
2018-09-04T11:12:29.868Z,40.90
2018-09-04T11:14:57.820Z,39.97
2018-09-04T11:17:25.907Z,38.10
2018-09-04T11:19:53.832Z,40.37
2018-09-04T11:22:22.785Z,41.70
2018-09-04T11:24:50.917Z,37.50
2018-09-04T11:27:19.008Z,40.20
2018-09-04T11:29:47.986Z,36.93
2018-09-04T11:32:16.065Z,36.50
2018-09-04T11:34:55.668Z,39.80
2018-09-04T11:37:23.638Z,37.37
2018-09-04T11:39:51.719Z,35.90
2018-09-04T11:42:19.705Z,35.63
2018-09-04T11:44:47.653Z,34.37
2018-09-04T11:47:15.607Z,32.93
2018-09-04T11:49:43.563Z,29.10
2018-09-04T11:52:11.605Z,29.93
2018-09-04T11:54:39.578Z,30.63
2018-09-04T11:57:07.532Z,32.23
2018-09-04T11:59:37.697Z,33.83
2018-09-04T12:02:06.855Z,33.20
2018-09-04T12:04:34.768Z,32.77
2018-09-04T12:07:02.717Z,31.27
2018-09-04T12:09:30.690Z,32.03
2018-09-04T12:11:58.624Z,27.57
2018-09-04T12:14:30.947Z,31.47
2018-09-04T12:16:58.844Z,28.30
2018-09-04T12:19:28.088Z,29.60
2018-09-04T12:21:56.045Z,34.50
2018-09-04T12:24:24.036Z,34.83
2018-09-04T12:26:52.035Z,32.93
2018-09-04T12:29:20.065Z,30.67
2018-09-04T12:31:48.037Z,30.67
2018-09-04T12:34:16.031Z,31.87
2018-09-04T12:36:43.979Z,26.90
2018-09-04T12:39:11.922Z,24.87
2018-09-04T12:41:39.886Z,23.03
2018-09-04T12:44:07.914Z,22.23
2018-09-04T12:46:36.020Z,24.47
2018-09-04T12:49:04.169Z,25.83
2018-09-04T12:51:34.260Z,24.57
2018-09-04T12:54:04.324Z,22.77
2018-09-04T12:56:32.391Z,25.73
2018-09-04T12:59:00.377Z,24.47
2018-09-04T13:01:28.355Z,24.30
2018-09-04T13:03:56.346Z,24.73
2018-09-04T13:06:24.373Z,24.83
2018-09-04T13:08:52.349Z,23.17
2018-09-04T13:11:20.317Z,25.97
2018-09-04T13:13:48.276Z,23.77
2018-09-04T13:16:16.233Z,27.77
2018-09-04T13:18:44.155Z,24.67
2018-09-04T13:21:12.120Z,23.27
2018-09-04T13:23:40.133Z,24.77
2018-09-04T13:26:08.116Z,26.07
2018-09-04T13:28:36.184Z,27.07
2018-09-04T13:31:04.164Z,24.03
2018-09-04T13:33:33.192Z,26.27
2018-09-04T13:36:01.327Z,28.67
2018-09-04T13:38:29.437Z,29.00
2018-09-04T13:41:02.715Z,26.40
2018-09-04T13:43:30.709Z,29.10
2018-09-04T13:45:58.953Z,25.23
2018-09-04T13:48:27.918Z,26.03
2018-09-04T13:50:56.039Z,28.00
2018-09-04T13:53:23.994Z,27.67
2018-09-04T13:55:52.000Z,23.30
2018-09-04T13:58:19.987Z,28.40
2018-09-04T14:00:47.936Z,26.30
2018-09-04T14:03:15.904Z,29.70
2018-09-04T14:05:43.856Z,26.33
2018-09-04T14:08:11.845Z,26.13
2018-09-04T14:10:39.833Z,26.57
2018-09-04T14:13:07.772Z,25.23
2018-09-04T14:15:35.724Z,20.97
2018-09-04T14:18:03.778Z,20.30
2018-09-04T14:20:31.785Z,18.17
2018-09-04T14:22:59.815Z,17.60
2018-09-04T14:25:27.841Z,18.90
2018-09-04T14:27:55.755Z,17.47
2018-09-04T14:30:23.788Z,18.53
2018-09-04T14:32:52.790Z,18.20
2018-09-04T14:35:20.774Z,17.90
2018-09-04T14:37:48.749Z,18.07
2018-09-04T14:40:16.784Z,17.30
2018-09-04T14:42:44.744Z,17.87
2018-09-04T14:45:13.810Z,18.33
2018-09-04T14:47:41.881Z,18.87
2018-09-04T14:50:10.875Z,18.47
2018-09-04T14:52:38.876Z,16.97
2018-09-04T14:55:06.951Z,16.30
2018-09-04T14:58:08.681Z,17.50
2018-09-04T15:00:36.646Z,19.43
2018-09-04T15:03:04.615Z,18.23
2018-09-04T15:05:32.584Z,18.23
2018-09-04T15:08:01.120Z,17.37
2018-09-04T15:10:29.125Z,18.40
2018-09-04T15:12:57.111Z,18.73
2018-09-04T15:15:26.101Z,18.10
2018-09-04T15:17:54.185Z,18.03
2018-09-04T15:20:22.830Z,17.10
2018-09-04T15:22:50.794Z,16.63
2018-09-04T15:25:18.806Z,17.57
2018-09-04T15:27:46.812Z,16.63
2018-09-04T15:30:15.968Z,15.67
2018-09-04T15:32:44.129Z,16.47
2018-09-04T15:35:12.200Z,17.00
2018-09-04T15:37:40.188Z,17.80
2018-09-04T15:40:08.126Z,20.50
2018-09-04T15:42:36.184Z,18.50
2018-09-04T15:45:04.128Z,19.43
2018-09-04T15:47:32.074Z,19.93
2018-09-04T15:50:00.069Z,23.10
2018-09-04T15:52:28.019Z,28.83
2018-09-04T15:54:56.239Z,29.63
2018-09-04T15:57:24.296Z,34.17
2018-09-04T15:59:52.279Z,35.43
2018-09-04T16:02:20.373Z,32.80
2018-09-04T16:04:48.420Z,31.27
2018-09-04T16:07:16.416Z,31.17
2018-09-04T16:09:44.642Z,36.60
2018-09-04T16:12:12.571Z,35.67
2018-09-04T16:14:40.691Z,34.97
2018-09-04T16:17:08.644Z,37.27
2018-09-04T16:19:36.603Z,31.90
2018-09-04T16:22:04.580Z,33.53
2018-09-04T16:24:32.579Z,31.13
2018-09-04T16:27:05.593Z,35.80
2018-09-04T16:29:33.533Z,39.63
2018-09-04T16:32:01.734Z,35.67
2018-09-04T16:34:31.976Z,38.23
2018-09-04T16:37:00.060Z,39.73
2018-09-04T16:39:28.259Z,38.87
2018-09-04T16:41:56.409Z,37.57
2018-09-04T16:44:24.438Z,37.07
2018-09-04T16:47:00.267Z,39.07
2018-09-04T16:49:28.295Z,37.40
2018-09-04T16:51:58.026Z,39.33
2018-09-04T16:54:29.974Z,38.63
2018-09-04T16:57:01.752Z,37.87
2018-09-04T16:59:30.341Z,40.87
2018-09-04T17:01:58.488Z,40.83
2018-09-04T17:04:26.408Z,40.77
2018-09-04T17:06:55.492Z,41.47
2018-09-04T17:09:24.693Z,39.00
2018-09-04T17:11:52.840Z,37.77
2018-09-04T17:14:22.016Z,36.80
2018-09-04T17:16:50.149Z,37.73
2018-09-04T17:19:18.300Z,38.70
2018-09-04T17:21:46.616Z,41.47
2018-09-04T17:24:22.943Z,40.40
2018-09-04T17:26:51.000Z,44.93
2018-09-04T17:29:19.021Z,37.70
2018-09-04T17:31:47.122Z,39.83
2018-09-04T17:34:17.194Z,40.47
2018-09-04T17:36:48.599Z,42.13
2018-09-04T17:39:16.944Z,45.33
2018-09-04T17:41:45.421Z,47.33
2018-09-04T17:44:13.701Z,48.27
2018-09-04T17:46:46.464Z,50.57
2018-09-04T17:49:24.356Z,46.83
2018-09-04T17:51:57.944Z,48.57
2018-09-04T17:54:31.533Z,53.23
2018-09-04T17:57:00.754Z,50.93
2018-09-04T17:59:30.796Z,51.47
2018-09-04T18:02:03.501Z,53.20
2018-09-04T18:04:31.691Z,51.80
2018-09-04T18:07:00.716Z,51.23
2018-09-04T18:09:28.947Z,53.43
2018-09-04T18:11:58.091Z,52.40
2018-09-04T18:14:26.641Z,50.37
2018-09-04T18:16:54.744Z,51.30
2018-09-04T18:19:23.056Z,52.10
2018-09-04T18:21:54.582Z,54.67
2018-09-04T18:24:34.773Z,50.13
2018-09-04T18:27:02.983Z,52.83
2018-09-04T18:29:31.206Z,51.50
2018-09-04T18:31:59.608Z,52.03
2018-09-04T18:34:27.677Z,46.90
2018-09-04T18:37:05.872Z,49.50
2018-09-04T18:39:34.286Z,51.23
2018-09-04T18:42:02.464Z,54.70
2018-09-04T18:44:30.832Z,50.90
2018-09-04T18:47:00.850Z,53.30
2018-09-04T18:49:29.564Z,51.77
2018-09-04T18:51:57.573Z,52.97
2018-09-04T18:54:25.517Z,51.73
2018-09-04T18:56:53.481Z,50.73
2018-09-04T18:59:21.629Z,51.23
2018-09-04T19:01:49.679Z,51.27
2018-09-04T19:04:18.607Z,46.63
2018-09-04T19:06:46.874Z,51.87
2018-09-04T19:09:14.920Z,51.03
2018-09-04T19:11:43.284Z,52.13
2018-09-04T19:14:23.300Z,52.97
2018-09-04T19:16:51.364Z,45.63
2018-09-04T19:19:20.321Z,50.23
2018-09-04T19:21:53.428Z,51.53
2018-09-04T19:24:25.112Z,49.33
2018-09-04T19:26:53.648Z,48.80
2018-09-04T19:29:21.697Z,47.00
2018-09-04T19:31:49.694Z,47.07
2018-09-04T19:34:17.808Z,51.50
2018-09-04T19:36:50.554Z,50.83
2018-09-04T19:39:18.895Z,52.63
2018-09-04T19:41:47.444Z,50.67
2018-09-04T19:44:17.763Z,52.20
2018-09-04T19:46:45.936Z,52.23
2018-09-04T19:49:14.335Z,54.03
2018-09-04T19:51:42.351Z,53.37
2018-09-04T19:54:10.899Z,54.13
2018-09-04T19:56:39.008Z,55.40
2018-09-04T19:59:12.061Z,53.43
2018-09-04T20:01:41.823Z,52.07
2018-09-04T20:04:09.879Z,57.47
2018-09-04T20:06:40.778Z,69.30
2018-09-04T20:09:09.845Z,55.90
2018-09-04T20:11:38.173Z,52.63
2018-09-04T20:14:07.249Z,50.90
2018-09-04T20:16:35.428Z,52.63
2018-09-04T20:19:03.413Z,53.03
2018-09-04T20:21:31.601Z,54.93
2018-09-04T20:24:02.869Z,49.77
2018-09-04T20:26:31.211Z,53.17
2018-09-04T20:29:00.390Z,50.33
2018-09-04T20:31:28.463Z,49.60
2018-09-04T20:33:58.639Z,51.50
2018-09-04T20:36:26.728Z,48.20
2018-09-04T20:38:55.766Z,48.97
2018-09-04T20:41:23.938Z,45.30
2018-09-04T20:43:52.102Z,47.03
2018-09-04T20:46:20.270Z,50.23
2018-09-04T20:48:48.407Z,49.20
2018-09-04T20:51:16.424Z,49.87
2018-09-04T20:53:44.479Z,49.23
2018-09-04T20:56:12.784Z,51.13
2018-09-04T20:58:46.423Z,48.73
2018-09-04T21:01:20.111Z,46.73
2018-09-04T21:03:53.603Z,44.83
2018-09-04T21:06:27.116Z,43.97
2018-09-04T21:09:02.435Z,44.33
2018-09-04T21:11:32.386Z,45.70
2018-09-04T21:14:00.324Z,47.63
2018-09-04T21:16:28.264Z,47.60
2018-09-04T21:18:56.243Z,50.63
2018-09-04T21:21:24.180Z,50.70
2018-09-04T21:23:52.179Z,51.57
2018-09-04T21:26:20.236Z,49.90
2018-09-04T21:28:48.170Z,50.73
2018-09-04T21:31:16.170Z,50.93
2018-09-04T21:33:44.116Z,50.10
2018-09-04T21:36:12.052Z,51.63
2018-09-04T21:38:40.051Z,55.33
2018-09-04T21:41:08.011Z,50.03
2018-09-04T21:43:35.952Z,52.13
2018-09-04T21:46:03.908Z,51.73
2018-09-04T21:48:31.860Z,51.80
2018-09-04T21:50:59.808Z,51.97
2018-09-04T21:53:27.741Z,51.47
2018-09-04T21:55:55.713Z,53.70
2018-09-04T21:58:23.663Z,49.97
2018-09-04T22:00:51.663Z,53.70
2018-09-04T22:03:19.621Z,51.77
2018-09-04T22:05:47.532Z,53.83
2018-09-04T22:08:15.486Z,56.37
2018-09-04T22:10:43.508Z,54.90
2018-09-04T22:13:11.527Z,53.40
2018-09-04T22:15:39.469Z,53.37
2018-09-04T22:18:07.453Z,53.63
2018-09-04T22:20:35.412Z,53.70
2018-09-04T22:23:03.376Z,52.60
2018-09-04T22:25:31.511Z,50.00
2018-09-04T22:27:59.528Z,51.30
2018-09-04T22:30:27.512Z,49.40
2018-09-04T22:32:56.016Z,50.87
2018-09-04T22:35:23.957Z,48.77
2018-09-04T22:37:51.896Z,53.23
2018-09-04T22:40:19.815Z,54.70
2018-09-04T22:42:47.759Z,53.03
2018-09-04T22:45:15.708Z,51.93
2018-09-04T22:47:43.688Z,51.93
2018-09-04T22:50:17.075Z,55.70
2018-09-04T22:52:45.045Z,53.30
2018-09-04T22:55:13.676Z,58.50
2018-09-04T22:57:42.272Z,58.27
2018-09-04T23:00:11.052Z,55.67
2018-09-04T23:02:38.989Z,56.50
2018-09-04T23:05:06.940Z,56.03
2018-09-04T23:07:34.916Z,58.67
2018-09-04T23:10:02.887Z,58.80
2018-09-04T23:12:30.881Z,61.13
2018-09-04T23:14:58.880Z,58.43
2018-09-04T23:17:27.167Z,66.77
2018-09-04T23:19:55.104Z,69.13
2018-09-04T23:22:23.056Z,62.13
2018-09-04T23:24:51.096Z,65.77
2018-09-04T23:27:19.029Z,68.47
2018-09-04T23:29:47.012Z,65.77
2018-09-04T23:32:14.966Z,67.40
2018-09-04T23:34:42.973Z,66.57
2018-09-04T23:37:10.945Z,65.00
2018-09-04T23:39:38.892Z,69.63
2018-09-04T23:42:06.857Z,65.53
2018-09-04T23:44:34.821Z,65.57
2018-09-04T23:47:02.874Z,65.47
2018-09-04T23:49:30.840Z,61.60
2018-09-04T23:51:58.795Z,68.20
2018-09-04T23:54:27.201Z,63.03
2018-09-04T23:56:55.432Z,63.27
2018-09-04T23:59:23.383Z,68.13
